createdAt,value
2022-12-25T00:00:26.845Z,100.00
2022-12-25T00:02:55.842Z,100.00
2022-12-25T00:05:25.739Z,100.00
2022-12-25T00:08:01.470Z,100.00
2022-12-25T00:10:32.412Z,100.00
2022-12-25T00:13:00.364Z,100.00
2022-12-25T00:15:28.805Z,100.00
2022-12-25T00:17:58.585Z,100.00
2022-12-25T00:20:30.543Z,100.00
2022-12-25T00:22:59.942Z,100.00
2022-12-25T00:25:27.852Z,100.00
2022-12-25T00:27:58.880Z,100.00
2022-12-25T00:30:35.624Z,100.00
2022-12-25T00:33:05.022Z,100.00
2022-12-25T00:35:32.924Z,100.00
2022-12-25T00:38:02.244Z,100.00
2022-12-25T00:40:30.267Z,100.00
2022-12-25T00:43:03.352Z,100.00
2022-12-25T00:45:31.349Z,100.00
2022-12-25T00:47:59.290Z,100.00
2022-12-25T00:50:27.290Z,100.00
2022-12-25T00:52:55.219Z,100.00
2022-12-25T00:55:24.509Z,100.00
2022-12-25T00:57:52.598Z,100.00
2022-12-25T01:00:20.926Z,100.00
2022-12-25T01:02:48.981Z,100.00
2022-12-25T01:05:17.161Z,100.00
2022-12-25T01:07:45.119Z,100.00
2022-12-25T01:10:23.987Z,100.00
2022-12-25T01:12:53.705Z,100.00
2022-12-25T01:15:21.958Z,100.00
2022-12-25T01:17:49.873Z,100.00
2022-12-25T01:20:19.464Z,100.00
2022-12-25T01:22:47.412Z,100.00
2022-12-25T01:25:15.415Z,100.00
2022-12-25T01:27:43.624Z,100.00
2022-12-25T01:30:13.621Z,100.00
2022-12-25T01:32:41.599Z,100.00
2022-12-25T01:35:10.012Z,100.00
2022-12-25T01:37:37.958Z,100.00
2022-12-25T01:40:08.995Z,100.00
2022-12-25T01:42:37.216Z,100.00
2022-12-25T01:45:35.956Z,100.00
2022-12-25T01:48:08.009Z,100.00
2022-12-25T01:50:38.123Z,100.00
2022-12-25T01:53:07.188Z,100.00
2022-12-25T01:55:37.291Z,100.00
2022-12-25T01:58:05.668Z,100.00
2022-12-25T02:00:35.405Z,100.00
2022-12-25T02:03:03.701Z,100.00
2022-12-25T02:05:33.697Z,100.00
2022-12-25T02:08:05.328Z,100.00
2022-12-25T02:10:33.581Z,100.00
2022-12-25T02:13:02.262Z,100.00
2022-12-25T02:15:40.035Z,100.00
2022-12-25T02:18:13.809Z,100.00
2022-12-25T02:20:53.953Z,100.00
2022-12-25T02:23:51.963Z,100.00
2022-12-25T02:26:46.218Z,100.00
2022-12-25T02:29:20.609Z,100.00
2022-12-25T02:31:55.309Z,100.00
2022-12-25T02:34:32.177Z,100.00
2022-12-25T02:37:07.696Z,100.00
2022-12-25T02:40:00.367Z,100.00
2022-12-25T02:42:53.000Z,100.00
2022-12-25T02:45:44.716Z,100.00
2022-12-25T02:48:32.130Z,100.00
2022-12-25T02:51:19.778Z,100.00
2022-12-25T02:54:10.122Z,100.00
2022-12-25T02:56:58.817Z,100.00
2022-12-25T02:59:47.749Z,100.00
2022-12-25T03:02:33.706Z,100.00
2022-12-25T03:05:22.742Z,100.00
2022-12-25T03:07:51.568Z,100.00
2022-12-25T03:10:38.333Z,100.00
2022-12-25T03:13:13.697Z,100.00
2022-12-25T03:15:59.200Z,100.00
2022-12-25T03:18:31.586Z,100.00
2022-12-25T03:21:17.730Z,100.00
2022-12-25T03:24:16.476Z,100.00
2022-12-25T03:26:57.541Z,100.00
2022-12-25T03:29:45.223Z,100.00
2022-12-25T03:32:21.239Z,100.00
2022-12-25T03:35:16.538Z,100.00
2022-12-25T03:38:17.432Z,100.00
2022-12-25T03:41:14.479Z,100.00
2022-12-25T03:44:08.327Z,100.00
2022-12-25T03:46:59.520Z,100.00
2022-12-25T03:50:04.092Z,100.00
2022-12-25T03:52:53.314Z,100.00
2022-12-25T03:55:41.023Z,100.00
2022-12-25T03:58:36.078Z,100.00
2022-12-25T04:01:21.391Z,100.00
2022-12-25T04:04:06.759Z,100.00
2022-12-25T04:06:52.056Z,100.00
2022-12-25T04:09:35.220Z,100.00
2022-12-25T04:12:20.674Z,100.00
2022-12-25T04:15:02.601Z,100.00
2022-12-25T04:17:48.025Z,100.00
2022-12-25T04:20:33.802Z,100.00
2022-12-25T04:23:19.082Z,100.00
2022-12-25T04:26:05.587Z,100.00
2022-12-25T04:28:50.811Z,100.00
2022-12-25T04:31:36.716Z,100.00
2022-12-25T04:34:21.996Z,100.00
2022-12-25T04:36:49.951Z,100.00
2022-12-25T04:39:18.116Z,100.00
2022-12-25T04:41:47.537Z,100.00
2022-12-25T04:44:15.629Z,100.00
2022-12-25T04:46:43.600Z,100.00
2022-12-25T04:49:11.640Z,100.00
2022-12-25T04:51:39.764Z,100.00
2022-12-25T04:54:07.772Z,100.00
2022-12-25T04:56:41.704Z,100.00
2022-12-25T04:59:14.841Z,100.00
2022-12-25T05:01:43.121Z,100.00
2022-12-25T05:04:11.201Z,100.00
2022-12-25T05:06:39.123Z,100.00
2022-12-25T05:09:07.201Z,100.00
2022-12-25T05:11:35.148Z,100.00
2022-12-25T05:14:03.057Z,100.00
2022-12-25T05:16:32.617Z,100.00
2022-12-25T05:19:00.580Z,100.00
2022-12-25T05:21:28.511Z,100.00
2022-12-25T05:23:56.540Z,100.00
2022-12-25T05:26:27.322Z,100.00
2022-12-25T05:28:56.088Z,100.00
2022-12-25T05:31:24.319Z,100.00
2022-12-25T05:33:54.019Z,100.00
2022-12-25T05:36:21.988Z,100.00
2022-12-25T05:38:49.962Z,100.00
2022-12-25T05:41:18.004Z,100.00
2022-12-25T05:43:46.004Z,100.00
2022-12-25T05:46:14.505Z,100.00
2022-12-25T05:48:43.027Z,100.00
2022-12-25T05:51:14.727Z,100.00
2022-12-25T05:53:43.840Z,100.00
2022-12-25T05:56:12.295Z,100.00
2022-12-25T05:58:41.304Z,100.00
2022-12-25T06:01:13.153Z,100.00
2022-12-25T06:03:41.360Z,100.00
2022-12-25T06:06:09.527Z,100.00
2022-12-25T06:08:39.121Z,100.00
2022-12-25T06:11:08.702Z,100.00
2022-12-25T06:13:37.635Z,100.00
2022-12-25T06:16:08.021Z,100.00
2022-12-25T06:18:36.977Z,100.00
2022-12-25T06:21:07.887Z,100.00
2022-12-25T06:23:36.229Z,100.00
2022-12-25T06:26:07.291Z,100.00
2022-12-25T06:28:35.449Z,100.00
2022-12-25T06:31:07.415Z,100.00
2022-12-25T06:33:35.410Z,100.00
2022-12-25T06:36:07.007Z,100.00
2022-12-25T06:38:35.228Z,100.00
2022-12-25T06:41:11.711Z,100.00
2022-12-25T06:43:40.121Z,100.00
2022-12-25T06:46:10.138Z,100.00
2022-12-25T06:48:39.588Z,100.00
2022-12-25T06:51:08.309Z,100.00
2022-12-25T06:53:40.146Z,100.00
2022-12-25T06:56:15.395Z,100.00
2022-12-25T06:58:45.024Z,100.00
2022-12-25T07:01:19.651Z,100.00
2022-12-25T07:03:49.335Z,100.00
2022-12-25T07:06:17.342Z,100.00
2022-12-25T07:08:45.389Z,100.00
2022-12-25T07:11:14.713Z,100.00
2022-12-25T07:13:42.659Z,100.00
2022-12-25T07:16:12.435Z,100.00
2022-12-25T07:18:40.569Z,100.00
2022-12-25T07:21:09.904Z,100.00
2022-12-25T07:23:38.593Z,100.00
2022-12-25T07:26:07.221Z,100.00
2022-12-25T07:28:36.580Z,100.00
2022-12-25T07:31:06.097Z,100.00
2022-12-25T07:33:35.042Z,100.00
2022-12-25T07:36:03.497Z,100.00
2022-12-25T07:38:31.816Z,100.00
2022-12-25T07:40:59.809Z,100.00
2022-12-25T07:43:28.228Z,100.00
2022-12-25T07:45:58.779Z,100.00
2022-12-25T07:48:27.347Z,100.00
2022-12-25T07:50:59.405Z,100.00
2022-12-25T07:53:27.624Z,100.00
2022-12-25T07:56:00.803Z,100.00
2022-12-25T07:58:28.876Z,100.00
2022-12-25T08:01:04.389Z,100.00
2022-12-25T08:03:32.722Z,100.00
2022-12-25T08:06:01.864Z,100.00
2022-12-25T08:08:31.483Z,99.86
2022-12-25T08:10:59.740Z,96.46
2022-12-25T08:13:27.803Z,93.03
2022-12-25T08:15:59.984Z,90.31
2022-12-25T08:18:30.255Z,88.44
2022-12-25T08:21:02.960Z,85.00
2022-12-25T08:23:30.926Z,82.85
2022-12-25T08:26:05.085Z,81.78
2022-12-25T08:28:35.317Z,81.60
2022-12-25T08:31:10.067Z,81.85
2022-12-25T08:33:38.679Z,81.48
2022-12-25T08:36:08.614Z,81.07
2022-12-25T08:38:37.061Z,81.72
2022-12-25T08:41:06.948Z,81.50
2022-12-25T08:43:35.313Z,80.72
2022-12-25T08:46:03.456Z,79.88
2022-12-25T08:48:33.247Z,78.25
2022-12-25T08:51:01.980Z,77.32
2022-12-25T08:53:29.982Z,75.64
2022-12-25T08:55:59.786Z,74.45
2022-12-25T08:58:28.722Z,73.89
2022-12-25T09:00:56.944Z,74.00
2022-12-25T09:03:25.105Z,74.78
2022-12-25T09:05:55.289Z,74.97
2022-12-25T09:08:23.371Z,75.25
2022-12-25T09:10:51.319Z,75.39
2022-12-25T09:13:19.356Z,75.75
2022-12-25T09:15:47.458Z,75.64
2022-12-25T09:18:15.520Z,76.87
2022-12-25T09:20:43.432Z,75.64
2022-12-25T09:23:14.398Z,76.19
2022-12-25T09:25:42.519Z,76.14
2022-12-25T09:28:10.430Z,75.30
2022-12-25T09:30:38.406Z,74.58
2022-12-25T09:33:07.124Z,73.81
2022-12-25T09:35:35.133Z,72.97
2022-12-25T09:38:03.212Z,72.84
2022-12-25T09:40:33.891Z,71.65
2022-12-25T09:43:03.955Z,72.00
2022-12-25T09:45:36.939Z,72.99
2022-12-25T09:48:05.586Z,71.50
2022-12-25T09:50:43.807Z,70.10
2022-12-25T09:53:16.940Z,69.47
2022-12-25T09:55:54.073Z,67.74
2022-12-25T09:58:22.129Z,66.79
2022-12-25T10:00:59.703Z,67.88
2022-12-25T10:03:59.577Z,67.11
2022-12-25T10:06:35.930Z,66.64
2022-12-25T10:09:17.497Z,66.64
2022-12-25T10:12:00.879Z,67.12
2022-12-25T10:14:37.624Z,67.49
2022-12-25T10:17:24.809Z,66.92
2022-12-25T10:20:00.926Z,67.61
2022-12-25T10:22:34.653Z,67.60
2022-12-25T10:25:04.652Z,66.89
2022-12-25T10:27:38.212Z,66.50
2022-12-25T10:30:15.974Z,66.24
2022-12-25T10:32:45.523Z,65.13
2022-12-25T10:35:15.042Z,65.17
2022-12-25T10:37:44.569Z,64.14
2022-12-25T10:40:32.238Z,62.97
2022-12-25T10:43:08.934Z,63.18
2022-12-25T10:45:44.869Z,61.86
2022-12-25T10:48:21.652Z,59.59
2022-12-25T10:50:50.335Z,57.44
2022-12-25T10:53:22.397Z,56.13
2022-12-25T10:55:58.808Z,55.90
2022-12-25T10:58:28.898Z,54.56
2022-12-25T11:01:00.088Z,53.68
2022-12-25T11:03:31.355Z,53.53
2022-12-25T11:05:59.644Z,53.49
2022-12-25T11:08:29.981Z,53.61
2022-12-25T11:11:06.183Z,52.67
2022-12-25T11:13:40.619Z,50.34
2022-12-25T11:16:11.744Z,49.22
2022-12-25T11:18:48.667Z,50.94
2022-12-25T11:21:18.543Z,51.01
2022-12-25T11:23:49.787Z,49.71
2022-12-25T11:26:19.304Z,49.86
2022-12-25T11:28:51.343Z,49.89
2022-12-25T11:31:21.068Z,49.09
2022-12-25T11:33:54.996Z,47.01
2022-12-25T11:36:30.375Z,46.92
2022-12-25T11:39:06.011Z,48.23
2022-12-25T11:41:37.506Z,47.44
2022-12-25T11:44:17.069Z,47.16
2022-12-25T11:46:50.380Z,47.06
2022-12-25T11:49:21.401Z,45.61
2022-12-25T11:51:53.105Z,45.49
2022-12-25T11:54:26.461Z,46.59
2022-12-25T11:56:55.091Z,45.81
2022-12-25T11:59:28.523Z,45.15
2022-12-25T12:02:01.249Z,45.20
2022-12-25T12:04:40.245Z,44.57
2022-12-25T12:07:21.908Z,43.08
2022-12-25T12:09:56.346Z,44.67
2022-12-25T12:12:33.387Z,45.56
2022-12-25T12:15:10.173Z,46.27
2022-12-25T12:17:38.236Z,47.60
2022-12-25T12:20:13.485Z,46.80
2022-12-25T12:22:51.417Z,48.02
2022-12-25T12:25:20.008Z,47.45
2022-12-25T12:27:59.745Z,47.82
2022-12-25T12:30:35.857Z,47.27
2022-12-25T12:33:07.484Z,47.68
2022-12-25T12:35:38.292Z,47.59
2022-12-25T12:38:12.363Z,46.62
2022-12-25T12:40:42.758Z,46.32
2022-12-25T12:43:30.131Z,46.29
2022-12-25T12:46:05.267Z,47.17
2022-12-25T12:48:41.558Z,47.90
2022-12-25T12:51:11.612Z,47.68
2022-12-25T12:53:41.178Z,46.23
2022-12-25T12:56:16.280Z,44.58
2022-12-25T12:58:49.873Z,45.21
2022-12-25T13:01:43.655Z,46.36
2022-12-25T13:04:48.280Z,47.72
2022-12-25T13:07:33.037Z,48.25
2022-12-25T13:10:14.700Z,47.41
2022-12-25T13:12:42.786Z,47.47
2022-12-25T13:15:14.120Z,48.31
2022-12-25T13:17:48.056Z,48.09
2022-12-25T13:20:31.324Z,48.54
2022-12-25T13:22:59.317Z,49.21
2022-12-25T13:25:27.246Z,50.58
2022-12-25T13:27:59.689Z,50.56
2022-12-25T13:30:28.251Z,50.26
2022-12-25T13:33:00.169Z,49.81
2022-12-25T13:35:28.816Z,48.85
2022-12-25T13:37:57.761Z,49.30
2022-12-25T13:40:28.205Z,49.41
2022-12-25T13:42:59.189Z,49.69
2022-12-25T13:45:29.750Z,50.61
2022-12-25T13:48:00.113Z,51.35
2022-12-25T13:50:30.510Z,52.83
2022-12-25T13:53:12.386Z,53.07
2022-12-25T13:55:42.854Z,54.10
2022-12-25T13:58:23.824Z,54.57
2022-12-25T14:00:55.697Z,55.05
2022-12-25T14:03:31.554Z,56.47
2022-12-25T14:06:01.706Z,57.16
2022-12-25T14:08:32.238Z,57.13
2022-12-25T14:11:03.766Z,57.73
2022-12-25T14:13:33.899Z,57.64
2022-12-25T14:16:02.605Z,57.40
2022-12-25T14:18:32.237Z,58.44
2022-12-25T14:21:03.517Z,58.41
2022-12-25T14:23:40.579Z,58.24
2022-12-25T14:26:08.775Z,60.50
2022-12-25T14:28:37.768Z,61.03
2022-12-25T14:31:06.242Z,61.94
2022-12-25T14:33:39.607Z,60.88
2022-12-25T14:36:08.525Z,61.15
2022-12-25T14:38:36.253Z,61.80
2022-12-25T14:41:07.594Z,62.35
2022-12-25T14:43:36.499Z,63.00
2022-12-25T14:46:06.970Z,63.91
2022-12-25T14:48:36.500Z,64.57
2022-12-25T14:51:07.187Z,65.36
2022-12-25T14:53:39.387Z,65.82
2022-12-25T14:56:09.074Z,66.43
2022-12-25T14:58:42.749Z,67.29
2022-12-25T15:01:22.058Z,68.03
2022-12-25T15:03:51.732Z,68.20
2022-12-25T15:06:22.429Z,68.64
2022-12-25T15:08:57.812Z,69.28
2022-12-25T15:11:25.854Z,69.94
2022-12-25T15:13:53.906Z,70.89
2022-12-25T15:16:24.352Z,71.20
2022-12-25T15:18:54.863Z,72.14
2022-12-25T15:21:26.800Z,72.20
2022-12-25T15:23:55.637Z,73.18
2022-12-25T15:26:24.027Z,74.02
2022-12-25T15:28:52.426Z,74.23
2022-12-25T15:31:23.463Z,74.93
2022-12-25T15:33:54.148Z,75.81
2022-12-25T15:36:22.437Z,76.24
2022-12-25T15:38:51.212Z,76.58
2022-12-25T15:41:36.821Z,77.74
2022-12-25T15:44:06.615Z,78.38
2022-12-25T15:46:35.271Z,78.87
2022-12-25T15:49:05.592Z,79.55
2022-12-25T15:51:34.065Z,79.75
2022-12-25T15:54:02.071Z,80.30
2022-12-25T15:56:31.146Z,80.32
2022-12-25T15:58:58.814Z,81.18
2022-12-25T16:01:26.862Z,81.07
2022-12-25T16:03:55.034Z,81.90
2022-12-25T16:06:24.518Z,82.67
2022-12-25T16:08:52.425Z,82.94
2022-12-25T16:11:20.383Z,83.14
2022-12-25T16:13:48.388Z,83.05
2022-12-25T16:16:16.452Z,83.14
2022-12-25T16:18:47.658Z,83.64
2022-12-25T16:21:18.753Z,84.56
2022-12-25T16:23:48.317Z,84.53
2022-12-25T16:26:16.358Z,84.77
2022-12-25T16:28:44.444Z,85.18
2022-12-25T16:31:13.144Z,84.83
2022-12-25T16:33:41.210Z,85.50
2022-12-25T16:36:09.966Z,86.32
2022-12-25T16:38:38.510Z,85.98
2022-12-25T16:41:09.245Z,85.68
2022-12-25T16:43:37.239Z,86.53
2022-12-25T16:46:10.129Z,87.11
2022-12-25T16:48:38.257Z,86.80
2022-12-25T16:51:09.858Z,87.30
2022-12-25T16:53:37.927Z,87.22
2022-12-25T16:56:08.690Z,87.66
2022-12-25T16:58:36.693Z,87.26
2022-12-25T17:01:08.839Z,87.78
2022-12-25T17:03:36.976Z,87.75
2022-12-25T17:06:05.763Z,87.83
2022-12-25T17:08:33.763Z,87.77
2022-12-25T17:11:05.113Z,88.09
2022-12-25T17:13:35.306Z,88.39
2022-12-25T17:16:13.540Z,88.65
2022-12-25T17:18:41.498Z,88.39
2022-12-25T17:21:09.646Z,88.73
2022-12-25T17:23:38.251Z,89.26
2022-12-25T17:26:07.184Z,89.35
2022-12-25T17:28:36.548Z,89.80
2022-12-25T17:31:05.036Z,90.26
2022-12-25T17:33:33.821Z,89.92
2022-12-25T17:36:06.160Z,89.74
2022-12-25T17:38:35.002Z,90.22
2022-12-25T17:41:05.605Z,89.77
2022-12-25T17:43:34.126Z,90.38
2022-12-25T17:46:07.154Z,90.22
2022-12-25T17:48:36.461Z,89.86
2022-12-25T17:51:05.669Z,89.64
2022-12-25T17:53:35.967Z,89.79
2022-12-25T17:56:04.066Z,90.01
2022-12-25T17:58:32.106Z,89.88
2022-12-25T18:01:08.042Z,89.94
2022-12-25T18:03:36.870Z,88.79
2022-12-25T18:06:05.624Z,89.33
2022-12-25T18:08:38.959Z,88.86
2022-12-25T18:11:10.315Z,88.95
2022-12-25T18:13:40.545Z,88.85
2022-12-25T18:16:10.569Z,88.32
2022-12-25T18:18:38.537Z,88.12
2022-12-25T18:21:06.791Z,88.20
2022-12-25T18:23:35.126Z,88.14
2022-12-25T18:26:03.619Z,87.82
2022-12-25T18:28:32.011Z,88.26
2022-12-25T18:31:00.454Z,87.86
2022-12-25T18:33:29.854Z,87.80
2022-12-25T18:35:59.134Z,88.03
2022-12-25T18:38:28.594Z,87.82
2022-12-25T18:40:57.034Z,87.95
2022-12-25T18:43:51.541Z,87.21
2022-12-25T18:46:13.472Z,87.57
2022-12-25T18:48:42.906Z,87.42
2022-12-25T18:51:14.547Z,87.62
2022-12-25T18:53:42.994Z,87.58
2022-12-25T18:56:13.459Z,89.34
2022-12-25T18:58:41.721Z,89.73
2022-12-25T19:01:15.312Z,88.30
2022-12-25T19:03:45.839Z,86.78
2022-12-25T19:06:18.369Z,86.65
2022-12-25T19:08:46.972Z,85.79
2022-12-25T19:11:15.068Z,85.24
2022-12-25T19:13:43.445Z,85.54
2022-12-25T19:16:12.100Z,85.37
2022-12-25T19:18:40.497Z,83.69
2022-12-25T19:21:11.161Z,83.41
2022-12-25T19:23:40.010Z,81.67
2022-12-25T19:26:09.590Z,81.27
2022-12-25T19:28:38.677Z,80.86
2022-12-25T19:31:08.177Z,80.56
2022-12-25T19:33:38.423Z,79.86
2022-12-25T19:36:10.739Z,79.36
2022-12-25T19:38:38.768Z,78.26
2022-12-25T19:41:07.792Z,78.94
2022-12-25T19:43:37.856Z,78.67
2022-12-25T19:46:07.115Z,80.23
2022-12-25T19:48:35.909Z,80.43
2022-12-25T19:51:03.903Z,79.98
2022-12-25T19:53:33.231Z,79.05
2022-12-25T19:56:03.359Z,78.78
2022-12-25T19:58:31.348Z,78.57
2022-12-25T20:00:59.983Z,78.95
2022-12-25T20:03:28.405Z,78.05
2022-12-25T20:05:56.611Z,78.55
2022-12-25T20:08:25.364Z,79.00
2022-12-25T20:10:54.674Z,78.55
2022-12-25T20:13:22.685Z,78.13
2022-12-25T20:15:51.284Z,78.32
2022-12-25T20:18:20.752Z,79.03
2022-12-25T20:20:48.709Z,78.51
2022-12-25T20:23:16.673Z,78.04
2022-12-25T20:25:44.639Z,78.41
2022-12-25T20:28:14.797Z,78.20
2022-12-25T20:30:42.946Z,77.76
2022-12-25T20:33:11.148Z,77.75
2022-12-25T20:35:39.152Z,77.81
2022-12-25T20:38:07.546Z,77.62
2022-12-25T20:40:59.936Z,77.81
2022-12-25T20:43:24.942Z,78.69
2022-12-25T20:45:53.464Z,78.62
2022-12-25T20:48:21.477Z,79.46
2022-12-25T20:50:50.998Z,78.73
2022-12-25T20:53:19.567Z,79.26
2022-12-25T20:55:48.944Z,79.44
2022-12-25T20:58:18.213Z,80.20
2022-12-25T21:00:47.736Z,81.16
2022-12-25T21:03:15.819Z,80.82
2022-12-25T21:05:50.710Z,79.98
2022-12-25T21:08:18.767Z,78.94
2022-12-25T21:10:50.510Z,78.00
2022-12-25T21:13:19.116Z,77.80
2022-12-25T21:15:49.710Z,78.67
2022-12-25T21:18:19.062Z,78.75
2022-12-25T21:20:48.968Z,78.00
2022-12-25T21:23:17.510Z,77.26
2022-12-25T21:25:46.139Z,76.50
2022-12-25T21:28:14.520Z,77.50
2022-12-25T21:30:42.736Z,77.98
2022-12-25T21:33:39.000Z,77.97
2022-12-25T21:36:08.627Z,78.88
2022-12-25T21:38:37.741Z,78.90
2022-12-25T21:41:06.280Z,79.71
2022-12-25T21:43:34.687Z,78.96
2022-12-25T21:46:04.376Z,79.37
2022-12-25T21:48:35.349Z,79.35
2022-12-25T21:51:21.349Z,77.91
2022-12-25T21:53:49.529Z,75.60
2022-12-25T21:56:17.823Z,76.01
2022-12-25T21:58:47.161Z,76.20
2022-12-25T22:01:16.723Z,75.85
2022-12-25T22:03:46.368Z,78.46
2022-12-25T22:06:31.502Z,77.27
2022-12-25T22:08:59.424Z,76.27
2022-12-25T22:11:45.266Z,76.87
2022-12-25T22:14:51.008Z,76.66
2022-12-25T22:17:42.719Z,78.19
2022-12-25T22:20:14.852Z,79.37
2022-12-25T22:22:42.952Z,79.32
2022-12-25T22:25:12.018Z,79.35
2022-12-25T22:27:40.236Z,79.83
2022-12-25T22:30:10.473Z,79.79
2022-12-25T22:32:38.512Z,81.27
2022-12-25T22:35:07.456Z,81.54
2022-12-25T22:37:37.279Z,82.47
2022-12-25T22:40:07.384Z,81.98
2022-12-25T22:42:35.499Z,82.22
2022-12-25T22:45:03.763Z,82.56
2022-12-25T22:47:31.864Z,81.91
2022-12-25T22:49:59.896Z,80.65
2022-12-25T22:52:28.166Z,81.25
2022-12-25T22:54:57.590Z,80.94
2022-12-25T22:57:26.634Z,81.41
2022-12-25T22:59:54.674Z,81.49
2022-12-25T23:02:23.362Z,82.03
2022-12-25T23:05:00.562Z,81.54
2022-12-25T23:07:30.521Z,80.30
2022-12-25T23:10:02.469Z,80.01
2022-12-25T23:13:02.391Z,79.62
2022-12-25T23:15:33.416Z,79.94
2022-12-25T23:18:17.954Z,80.75
2022-12-25T23:21:03.564Z,80.69
2022-12-25T23:24:04.389Z,80.82
2022-12-25T23:26:35.188Z,80.96
2022-12-25T23:29:20.872Z,81.73
2022-12-25T23:31:53.723Z,82.14
2022-12-25T23:34:22.410Z,81.52
2022-12-25T23:36:50.372Z,81.03
2022-12-25T23:39:23.244Z,81.18
2022-12-25T23:41:52.718Z,81.94
2022-12-25T23:44:23.334Z,82.33
2022-12-25T23:46:54.226Z,82.58
2022-12-25T23:49:26.216Z,82.70
2022-12-25T23:51:55.516Z,82.40
2022-12-25T23:54:30.985Z,81.90
2022-12-25T23:57:00.814Z,82.10
2022-12-25T23:59:45.271Z,82.12
